createdAt,value
2019-01-19T00:02:31.080Z,8.37
2019-01-19T00:05:53.132Z,8.70
2019-01-19T00:08:32.491Z,7.60
2019-01-19T00:11:55.749Z,8.13
2019-01-19T00:14:33.594Z,8.30
2019-01-19T00:17:32.369Z,8.00
2019-01-19T00:20:35.390Z,8.27
2019-01-19T00:23:19.501Z,9.30
2019-01-19T00:26:47.650Z,8.77
2019-01-19T00:29:48.053Z,9.47
2019-01-19T00:33:04.430Z,6.93
2019-01-19T00:36:03.700Z,8.53
2019-01-19T00:39:22.801Z,8.70
2019-01-19T00:42:20.039Z,8.40
2019-01-19T00:45:00.389Z,9.07
2019-01-19T00:47:46.430Z,10.97
2019-01-19T00:50:39.852Z,10.10
2019-01-19T00:53:19.068Z,9.60
2019-01-19T00:56:35.754Z,8.17
2019-01-19T00:59:15.764Z,8.40
2019-01-19T01:02:49.852Z,8.90
2019-01-19T01:05:00.914Z,8.83
2019-01-19T01:08:10.423Z,9.73
2019-01-19T01:11:16.383Z,9.67
2019-01-19T01:14:22.484Z,9.27
2019-01-19T01:17:23.990Z,8.03
2019-01-19T01:20:32.924Z,9.10
2019-01-19T01:23:35.118Z,7.73
2019-01-19T01:26:53.283Z,8.50
2019-01-19T01:29:51.463Z,8.47
2019-01-19T01:32:44.688Z,7.67
2019-01-19T01:35:45.732Z,8.20
2019-01-19T01:38:42.484Z,8.50
2019-01-19T01:42:08.296Z,9.00
2019-01-19T01:45:09.493Z,8.10
2019-01-19T01:48:18.290Z,8.43
2019-01-19T01:51:22.092Z,7.93
2019-01-19T01:54:19.896Z,7.83
2019-01-19T01:56:49.182Z,7.17
2019-01-19T01:59:24.524Z,9.43
2019-01-19T02:02:24.090Z,9.53
2019-01-19T02:05:40.448Z,7.20
2019-01-19T02:08:28.019Z,8.57
2019-01-19T02:11:38.833Z,8.20
2019-01-19T02:14:46.031Z,7.47
2019-01-19T02:17:50.941Z,8.77
2019-01-19T02:20:35.775Z,8.43
2019-01-19T02:23:45.662Z,10.20
2019-01-19T02:27:00.821Z,9.20
2019-01-19T02:30:10.818Z,7.83
2019-01-19T02:33:16.024Z,7.43
2019-01-19T02:36:00.552Z,7.60
2019-01-19T02:39:30.192Z,7.70
2019-01-19T02:42:32.170Z,6.33
2019-01-19T02:45:56.172Z,6.33
2019-01-19T02:49:04.035Z,7.20
2019-01-19T02:52:20.795Z,8.10
2019-01-19T02:55:21.511Z,5.63
2019-01-19T02:58:29.708Z,7.90
2019-01-19T03:01:36.012Z,7.13
2019-01-19T03:04:41.859Z,8.17
2019-01-19T03:08:03.955Z,6.80
2019-01-19T03:11:02.036Z,6.10
2019-01-19T03:14:11.390Z,7.73
2019-01-19T03:17:23.737Z,8.33
2019-01-19T03:20:30.198Z,7.93
2019-01-19T03:23:36.251Z,7.67
2019-01-19T03:26:19.880Z,8.17
2019-01-19T03:29:24.280Z,9.17
2019-01-19T03:32:43.568Z,9.27
2019-01-19T03:35:55.452Z,7.27
2019-01-19T03:38:54.212Z,7.70
2019-01-19T03:42:00.695Z,7.33
2019-01-19T03:45:00.601Z,6.60
2019-01-19T03:48:01.234Z,7.67
2019-01-19T03:51:10.349Z,6.83
2019-01-19T03:54:07.641Z,7.77
2019-01-19T03:57:26.997Z,7.57
2019-01-19T04:00:33.185Z,8.20
2019-01-19T04:03:43.321Z,7.93
2019-01-19T04:06:33.660Z,9.80
2019-01-19T04:09:32.349Z,8.07
2019-01-19T04:12:30.430Z,8.20
2019-01-19T04:15:43.279Z,8.13
2019-01-19T04:18:37.181Z,8.00
2019-01-19T04:21:48.250Z,7.47
2019-01-19T04:24:30.397Z,8.80
2019-01-19T04:27:08.363Z,10.70
2019-01-19T04:29:37.495Z,8.73
2019-01-19T04:32:06.613Z,9.20
2019-01-19T04:34:35.813Z,8.70
2019-01-19T04:37:05.866Z,7.70
2019-01-19T04:39:43.677Z,7.73
2019-01-19T04:42:13.390Z,8.53
2019-01-19T04:44:44.816Z,7.60
2019-01-19T04:47:19.816Z,8.40
2019-01-19T04:49:49.007Z,7.87
2019-01-19T04:52:19.822Z,8.77
2019-01-19T04:54:49.040Z,8.13
2019-01-19T04:57:18.189Z,8.30
2019-01-19T04:59:48.535Z,8.07
2019-01-19T05:02:17.601Z,7.87
2019-01-19T05:04:46.731Z,8.43
2019-01-19T05:07:25.434Z,8.77
2019-01-19T05:09:57.797Z,7.80
2019-01-19T05:12:28.021Z,9.90
2019-01-19T05:14:59.714Z,8.90
2019-01-19T05:17:28.837Z,8.07
2019-01-19T05:19:59.574Z,8.13
2019-01-19T05:22:28.759Z,8.60
2019-01-19T05:24:57.887Z,9.97
2019-01-19T05:27:28.362Z,7.73
2019-01-19T05:29:59.172Z,8.70
2019-01-19T05:32:28.256Z,8.20
2019-01-19T05:34:57.987Z,7.97
2019-01-19T05:37:27.130Z,8.93
2019-01-19T05:39:56.276Z,8.97
2019-01-19T05:42:25.417Z,9.40
2019-01-19T05:44:57.348Z,8.73
2019-01-19T05:47:27.724Z,7.77
2019-01-19T05:50:01.233Z,8.07
2019-01-19T05:52:35.855Z,9.40
2019-01-19T05:55:08.614Z,9.20
2019-01-19T05:57:37.366Z,9.67
2019-01-19T06:00:24.376Z,8.87
2019-01-19T06:02:59.647Z,9.23
2019-01-19T06:05:28.857Z,7.90
2019-01-19T06:07:58.055Z,8.77
2019-01-19T06:10:27.292Z,9.13
2019-01-19T06:12:56.758Z,8.67
2019-01-19T06:15:25.975Z,9.20
2019-01-19T06:17:55.128Z,9.40
2019-01-19T06:20:24.269Z,12.17
2019-01-19T06:22:55.068Z,9.63
2019-01-19T06:25:24.316Z,10.27
2019-01-19T06:27:53.651Z,8.90
2019-01-19T06:30:26.198Z,8.50
2019-01-19T06:32:58.383Z,9.63
2019-01-19T06:35:30.756Z,12.00
2019-01-19T06:37:59.625Z,11.33
2019-01-19T06:40:28.725Z,9.50
2019-01-19T06:42:57.894Z,12.20
2019-01-19T06:45:30.688Z,11.60
2019-01-19T06:47:59.863Z,13.83
2019-01-19T06:50:29.243Z,11.70
2019-01-19T06:52:59.488Z,12.93
2019-01-19T06:55:31.443Z,12.47
2019-01-19T06:58:00.951Z,12.03
2019-01-19T07:00:30.418Z,11.70
2019-01-19T07:03:02.010Z,13.70
2019-01-19T07:05:33.103Z,17.83
2019-01-19T07:08:02.039Z,18.40
2019-01-19T07:10:31.181Z,18.43
2019-01-19T07:13:02.170Z,14.50
2019-01-19T07:15:31.260Z,12.33
2019-01-19T07:18:03.564Z,14.27
2019-01-19T07:20:38.891Z,14.73
2019-01-19T07:23:03.699Z,17.07
2019-01-19T07:25:32.818Z,15.37
2019-01-19T07:28:01.938Z,13.63
2019-01-19T07:30:32.767Z,11.93
2019-01-19T07:33:04.887Z,12.47
2019-01-19T07:35:34.010Z,13.13
2019-01-19T07:38:03.134Z,14.57
2019-01-19T07:40:32.875Z,15.60
2019-01-19T07:43:10.638Z,14.13
2019-01-19T07:45:41.306Z,12.90
2019-01-19T07:48:10.798Z,13.97
2019-01-19T07:50:42.396Z,12.63
2019-01-19T07:53:11.662Z,13.17
2019-01-19T07:55:40.955Z,13.10
2019-01-19T07:58:12.566Z,13.00
2019-01-19T08:00:41.709Z,13.53
2019-01-19T08:03:11.367Z,11.47
2019-01-19T08:05:40.500Z,10.57
2019-01-19T08:08:12.837Z,11.37
2019-01-19T08:10:41.958Z,9.60
2019-01-19T08:13:11.276Z,10.67
2019-01-19T08:15:40.532Z,10.33
2019-01-19T08:18:10.366Z,10.23
2019-01-19T08:20:40.575Z,9.87
2019-01-19T08:23:12.695Z,9.73
2019-01-19T08:25:42.148Z,9.50
2019-01-19T08:28:11.295Z,9.13
2019-01-19T08:30:40.445Z,10.73
2019-01-19T08:33:09.604Z,7.90
2019-01-19T08:35:40.932Z,9.03
2019-01-19T08:38:10.044Z,8.03
2019-01-19T08:40:39.567Z,8.87
2019-01-19T08:43:23.897Z,9.40
2019-01-19T08:45:53.224Z,9.47
2019-01-19T08:48:27.825Z,10.00
2019-01-19T08:50:57.347Z,7.83
2019-01-19T08:53:28.143Z,10.40
2019-01-19T08:55:58.966Z,10.17
2019-01-19T08:58:28.812Z,8.30
2019-01-19T09:01:01.066Z,10.37
2019-01-19T09:03:30.217Z,9.20
2019-01-19T09:05:59.349Z,10.00
2019-01-19T09:08:28.626Z,9.13
2019-01-19T09:11:01.077Z,9.03
2019-01-19T09:13:38.463Z,9.63
2019-01-19T09:16:11.567Z,9.30
2019-01-19T09:18:41.803Z,8.77
2019-01-19T09:21:10.879Z,8.00
2019-01-19T09:23:47.901Z,8.90
2019-01-19T09:26:17.959Z,8.77
2019-01-19T09:28:47.442Z,8.50
2019-01-19T09:31:16.912Z,9.53
2019-01-19T09:33:46.031Z,7.60
2019-01-19T09:36:15.151Z,8.83
2019-01-19T09:38:44.365Z,7.77
2019-01-19T09:41:14.768Z,9.43
2019-01-19T09:43:43.897Z,9.50
2019-01-19T09:46:18.621Z,10.40
2019-01-19T09:48:47.739Z,8.53
2019-01-19T09:51:18.660Z,9.70
2019-01-19T09:53:49.387Z,10.07
2019-01-19T09:56:18.633Z,9.80
2019-01-19T09:58:49.129Z,10.23
2019-01-19T10:01:18.337Z,9.60
2019-01-19T10:03:53.142Z,8.97
2019-01-19T10:06:25.677Z,8.17
2019-01-19T10:08:54.809Z,9.73
2019-01-19T10:11:24.011Z,12.13
2019-01-19T10:13:54.298Z,10.23
2019-01-19T10:16:29.364Z,9.50
2019-01-19T10:19:04.085Z,9.97
2019-01-19T10:21:33.578Z,11.40
2019-01-19T10:24:05.301Z,9.37
2019-01-19T10:26:34.421Z,10.57
2019-01-19T10:29:07.462Z,11.00
2019-01-19T10:31:36.567Z,9.17
2019-01-19T10:34:05.683Z,11.27
2019-01-19T10:36:34.812Z,9.87
2019-01-19T10:39:05.565Z,8.37
2019-01-19T10:41:40.810Z,7.77
2019-01-19T10:44:10.097Z,8.30
2019-01-19T10:46:39.197Z,8.87
2019-01-19T10:49:13.906Z,8.27
2019-01-19T10:51:46.241Z,9.50
2019-01-19T10:54:16.342Z,8.33
2019-01-19T10:56:45.464Z,9.00
2019-01-19T10:59:14.615Z,8.30
2019-01-19T11:01:46.452Z,7.67
2019-01-19T11:04:15.550Z,9.57
2019-01-19T11:06:46.253Z,10.13
2019-01-19T11:09:21.229Z,8.37
2019-01-19T11:11:50.381Z,10.47
2019-01-19T11:14:21.114Z,9.47
2019-01-19T11:16:53.200Z,8.30
2019-01-19T11:19:25.518Z,8.37
2019-01-19T11:21:55.265Z,9.73
2019-01-19T11:24:24.700Z,7.70
2019-01-19T11:26:54.133Z,8.20
2019-01-19T11:29:23.234Z,9.63
2019-01-19T11:31:52.708Z,9.60
2019-01-19T11:34:21.816Z,8.57
2019-01-19T11:36:50.949Z,9.60
2019-01-19T11:39:20.091Z,7.83
2019-01-19T11:41:50.458Z,8.73
2019-01-19T11:44:21.335Z,10.40
2019-01-19T11:46:54.604Z,10.07
2019-01-19T11:49:23.727Z,10.17
2019-01-19T11:51:54.388Z,8.90
2019-01-19T11:54:24.670Z,9.97
2019-01-19T11:56:59.860Z,7.50
2019-01-19T11:59:30.717Z,9.30
2019-01-19T12:01:59.983Z,8.73
2019-01-19T12:04:29.087Z,10.90
2019-01-19T12:07:00.766Z,9.80
2019-01-19T12:09:33.967Z,8.70
2019-01-19T12:12:03.771Z,9.10
2019-01-19T12:14:32.895Z,8.77
2019-01-19T12:17:04.317Z,9.73
2019-01-19T12:19:34.994Z,10.00
2019-01-19T12:22:05.581Z,9.90
2019-01-19T12:24:37.128Z,10.40
2019-01-19T12:27:06.350Z,9.63
2019-01-19T12:29:35.500Z,10.20
2019-01-19T12:32:07.627Z,8.50
2019-01-19T12:34:36.787Z,9.47
2019-01-19T12:37:05.908Z,7.97
2019-01-19T12:39:36.953Z,9.90
2019-01-19T12:42:08.358Z,9.80
2019-01-19T12:44:43.610Z,9.27
2019-01-19T12:47:13.119Z,10.20
2019-01-19T12:49:43.835Z,8.97
2019-01-19T12:52:14.066Z,10.20
2019-01-19T12:54:44.235Z,8.43
2019-01-19T12:57:18.601Z,9.03
2019-01-19T12:59:53.672Z,7.27
2019-01-19T13:02:22.927Z,8.10
2019-01-19T13:04:52.093Z,9.70
2019-01-19T13:07:23.672Z,9.40
2019-01-19T13:10:01.462Z,8.20
2019-01-19T13:12:53.302Z,8.67
2019-01-19T13:16:14.355Z,9.17
2019-01-19T13:19:02.764Z,9.80
2019-01-19T13:22:11.923Z,9.07
2019-01-19T13:25:09.595Z,10.30
2019-01-19T13:28:33.140Z,13.23
2019-01-19T13:31:56.652Z,10.17
2019-01-19T13:35:22.201Z,11.03
2019-01-19T13:38:14.130Z,8.50
2019-01-19T13:41:27.371Z,11.80
2019-01-19T13:44:41.952Z,8.77
2019-01-19T13:48:08.285Z,9.37
2019-01-19T13:51:17.883Z,9.50
2019-01-19T13:54:58.538Z,7.17
2019-01-19T13:57:40.753Z,8.80
2019-01-19T14:00:54.225Z,8.23
2019-01-19T14:03:46.942Z,8.93
2019-01-19T14:07:14.650Z,7.87
2019-01-19T14:10:24.811Z,9.13
2019-01-19T14:13:43.473Z,10.37
2019-01-19T14:16:39.952Z,7.90
2019-01-19T14:19:58.008Z,7.50
2019-01-19T14:23:14.103Z,8.07
2019-01-19T14:26:18.319Z,8.50
2019-01-19T14:29:47.653Z,8.90
2019-01-19T14:33:04.995Z,8.53
2019-01-19T14:36:37.844Z,8.10
2019-01-19T14:39:35.146Z,9.97
2019-01-19T14:42:48.094Z,9.00
2019-01-19T14:45:54.611Z,7.57
2019-01-19T14:48:52.884Z,9.33
2019-01-19T14:52:15.809Z,9.20
2019-01-19T14:55:29.955Z,9.67
2019-01-19T14:58:20.510Z,9.10
2019-01-19T15:01:20.212Z,8.07
2019-01-19T15:04:25.020Z,8.60
2019-01-19T15:07:33.885Z,9.70
2019-01-19T15:10:38.154Z,8.20
2019-01-19T15:13:48.241Z,9.13
2019-01-19T15:16:48.576Z,9.03
2019-01-19T15:19:55.612Z,9.83
2019-01-19T15:23:03.666Z,8.23
2019-01-19T15:26:23.071Z,8.90
2019-01-19T15:29:07.466Z,9.20
2019-01-19T15:32:14.686Z,8.93
2019-01-19T15:35:21.341Z,9.30
2019-01-19T15:38:05.884Z,10.70
2019-01-19T15:41:11.407Z,11.10
2019-01-19T15:44:13.591Z,8.47
2019-01-19T15:47:29.810Z,9.33
2019-01-19T15:50:35.559Z,10.20
2019-01-19T15:53:41.258Z,7.60
2019-01-19T15:56:48.742Z,9.27
2019-01-19T16:00:09.619Z,8.90
2019-01-19T16:03:17.776Z,10.60
2019-01-19T16:06:20.843Z,9.83
2019-01-19T16:09:18.283Z,9.90
2019-01-19T16:12:00.180Z,9.70
2019-01-19T16:15:14.260Z,10.00
2019-01-19T16:18:19.370Z,8.20
2019-01-19T16:21:19.230Z,9.27
2019-01-19T16:24:39.033Z,9.93
2019-01-19T16:28:04.537Z,8.67
2019-01-19T16:31:06.541Z,9.00
2019-01-19T16:34:13.549Z,10.27
2019-01-19T16:37:11.005Z,11.70
2019-01-19T16:40:25.984Z,11.90
2019-01-19T16:43:18.680Z,16.37
2019-01-19T16:46:21.258Z,18.47
2019-01-19T16:49:17.527Z,13.30
2019-01-19T16:52:28.095Z,11.57
2019-01-19T16:55:23.803Z,12.30
2019-01-19T16:58:40.226Z,12.17
2019-01-19T17:01:24.440Z,19.93
2019-01-19T17:04:22.418Z,16.53
2019-01-19T17:07:35.420Z,11.97
2019-01-19T17:10:37.603Z,11.13
2019-01-19T17:13:36.100Z,10.60
2019-01-19T17:16:41.198Z,9.33
2019-01-19T17:19:39.377Z,11.57
2019-01-19T17:22:30.105Z,11.37
2019-01-19T17:25:24.206Z,10.73
2019-01-19T17:28:15.055Z,10.87
2019-01-19T17:31:11.159Z,10.13
2019-01-19T17:34:04.776Z,11.80
2019-01-19T17:37:07.786Z,12.17
2019-01-19T17:40:24.062Z,14.97
2019-01-19T17:43:26.346Z,15.37
2019-01-19T17:46:27.578Z,14.10
2019-01-19T17:49:13.457Z,14.97
2019-01-19T17:52:14.642Z,13.33
2019-01-19T17:55:17.547Z,14.00
2019-01-19T17:58:17.670Z,11.50
2019-01-19T18:01:23.651Z,11.07
2019-01-19T18:04:25.991Z,11.50
2019-01-19T18:07:27.262Z,9.93
2019-01-19T18:10:25.518Z,11.10
2019-01-19T18:13:17.353Z,13.17
2019-01-19T18:15:56.625Z,14.20
2019-01-19T18:18:52.457Z,13.07
2019-01-19T18:21:50.582Z,13.27
2019-01-19T18:24:40.211Z,11.77
2019-01-19T18:27:38.345Z,14.17
2019-01-19T18:30:37.479Z,12.80
2019-01-19T18:33:31.858Z,12.10
2019-01-19T18:36:31.712Z,12.83
2019-01-19T18:39:34.335Z,13.50
2019-01-19T18:42:34.508Z,14.70
2019-01-19T18:45:26.368Z,15.77
2019-01-19T18:48:51.525Z,11.83
2019-01-19T18:52:10.029Z,14.03
2019-01-19T18:55:10.581Z,13.93
2019-01-19T18:58:17.661Z,15.10
2019-01-19T19:01:19.167Z,15.10
2019-01-19T19:04:25.405Z,14.97
2019-01-19T19:07:10.711Z,15.10
2019-01-19T19:10:06.531Z,15.27
2019-01-19T19:13:19.295Z,18.40
2019-01-19T19:16:13.736Z,17.57
2019-01-19T19:19:20.863Z,17.97
2019-01-19T19:22:28.069Z,16.90
2019-01-19T19:25:32.842Z,15.60
2019-01-19T19:28:41.779Z,16.97
2019-01-19T19:31:36.674Z,13.87
2019-01-19T19:34:58.987Z,13.23
2019-01-19T19:38:10.760Z,14.00
2019-01-19T19:41:04.970Z,13.33
2019-01-19T19:44:13.877Z,14.43
2019-01-19T19:47:12.219Z,12.77
2019-01-19T19:50:02.024Z,13.37
2019-01-19T19:52:32.376Z,15.03
2019-01-19T19:55:02.660Z,15.70
2019-01-19T19:57:31.932Z,16.90
2019-01-19T20:00:09.162Z,18.13
2019-01-19T20:02:38.376Z,22.70
2019-01-19T20:05:08.070Z,18.70
2019-01-19T20:07:41.900Z,16.83
2019-01-19T20:10:17.061Z,16.63
2019-01-19T20:12:48.440Z,15.90
2019-01-19T20:15:17.624Z,15.03
2019-01-19T20:17:52.696Z,15.23
2019-01-19T20:20:22.987Z,15.80
2019-01-19T20:22:52.112Z,41.50
2019-01-19T20:25:23.846Z,44.50
2019-01-19T20:27:53.071Z,21.03
2019-01-19T20:30:22.414Z,24.87
2019-01-19T20:32:51.943Z,20.00
2019-01-19T20:35:21.142Z,13.97
2019-01-19T20:37:51.016Z,18.17
2019-01-19T20:40:24.280Z,15.70
2019-01-19T20:42:51.200Z,18.10
2019-01-19T20:45:20.301Z,18.43
2019-01-19T20:47:49.435Z,14.67
2019-01-19T20:50:18.651Z,14.47
2019-01-19T20:52:48.929Z,16.27
2019-01-19T20:55:22.287Z,14.87
2019-01-19T20:58:00.639Z,14.10
2019-01-19T21:00:29.773Z,13.90
2019-01-19T21:03:00.637Z,15.13
2019-01-19T21:05:30.206Z,13.83
2019-01-19T21:08:01.135Z,16.73
2019-01-19T21:10:31.994Z,14.53
2019-01-19T21:13:03.544Z,14.30
2019-01-19T21:15:32.800Z,13.20
2019-01-19T21:18:05.394Z,13.43
2019-01-19T21:20:35.738Z,15.37
2019-01-19T21:23:14.156Z,16.00
2019-01-19T21:25:46.288Z,16.87
2019-01-19T21:28:15.426Z,15.17
2019-01-19T21:30:46.213Z,17.30
2019-01-19T21:33:15.513Z,13.57
2019-01-19T21:35:44.659Z,13.67
2019-01-19T21:38:15.911Z,15.27
2019-01-19T21:40:48.426Z,14.93
2019-01-19T21:43:20.479Z,16.80
2019-01-19T21:45:55.752Z,15.67
2019-01-19T21:48:24.899Z,16.30
2019-01-19T21:50:54.352Z,15.00
2019-01-19T21:53:23.673Z,15.37
2019-01-19T21:55:52.781Z,15.23
2019-01-19T21:58:22.111Z,16.50
2019-01-19T22:00:51.249Z,14.20
2019-01-19T22:03:21.227Z,15.10
2019-01-19T22:05:52.635Z,14.37
2019-01-19T22:08:28.826Z,16.07
2019-01-19T22:10:57.928Z,14.30
2019-01-19T22:13:27.034Z,14.20
2019-01-19T22:15:56.273Z,14.27
2019-01-19T22:18:25.490Z,15.63
2019-01-19T22:20:54.687Z,13.10
2019-01-19T22:23:25.925Z,14.63
2019-01-19T22:25:54.805Z,17.60
2019-01-19T22:28:25.307Z,16.60
2019-01-19T22:30:54.388Z,14.33
2019-01-19T22:33:26.221Z,14.10
2019-01-19T22:35:56.738Z,13.43
2019-01-19T22:38:26.006Z,16.00
2019-01-19T22:40:55.147Z,13.80
2019-01-19T22:43:29.663Z,13.90
2019-01-19T22:45:59.255Z,14.93
2019-01-19T22:48:28.389Z,15.37
2019-01-19T22:50:57.583Z,12.87
2019-01-19T22:53:31.269Z,15.37
2019-01-19T22:56:00.476Z,13.20
2019-01-19T22:58:29.678Z,14.17
2019-01-19T23:01:40.348Z,12.60
2019-01-19T23:04:14.732Z,13.30
2019-01-19T23:06:43.832Z,14.03
2019-01-19T23:09:13.498Z,14.87
2019-01-19T23:11:42.805Z,14.80
2019-01-19T23:14:12.735Z,16.67
2019-01-19T23:16:46.013Z,14.80
2019-01-19T23:19:15.115Z,14.50
2019-01-19T23:21:44.228Z,14.93
2019-01-19T23:24:13.688Z,16.67
2019-01-19T23:26:43.597Z,16.53
2019-01-19T23:29:12.826Z,14.97
2019-01-19T23:31:44.420Z,14.67
2019-01-19T23:34:15.635Z,14.67
2019-01-19T23:36:44.648Z,13.73
2019-01-19T23:39:14.567Z,16.93
2019-01-19T23:41:44.023Z,18.27
2019-01-19T23:44:16.001Z,15.20
2019-01-19T23:46:46.513Z,17.37
2019-01-19T23:49:21.091Z,17.43
2019-01-19T23:51:51.310Z,14.30
2019-01-19T23:54:20.423Z,16.33
2019-01-19T23:56:53.871Z,15.30
2019-01-19T23:59:23.020Z,16.63
